Rockefeller, Pennsylvania
Current Conditions -  °F | °C
As of 7:53 PM on Saturday 25 Oct 2014 (Local Time) from KSEG Reporting Station
Clear Clear  
Wind Chill: 63°   Ceiling: Unl
Heat Index: 63°   Visibility: 10mi
Dew Point: 48°   Wind: 6mph
Humidity: 58%   Direction: NA
Pressure: 29.66"   Gusts: NA
Location:  40.83°N, 76.761°W
Report Text: KSEG 252353Z AUTO VRB05KT 10SM CLR 17/09 A2966 RMK AO2 SLP045 T01720089 10217 20172 56006
Loading
Personal Weather Stations






























Interactive Weather Map
Tropical Storm Tracking
New forecast layout! Learn more

10-Day Weather Forecast

Advertisements
Track Severe Weather on mobile